createdAt,value
2023-03-03T00:04:58.094Z,83.57
2023-03-03T00:10:05.792Z,83.82
2023-03-03T00:15:20.046Z,84.14
2023-03-03T00:20:35.919Z,83.79
2023-03-03T00:25:45.311Z,84.41
2023-03-03T00:30:54.643Z,84.07
2023-03-03T00:36:12.780Z,83.60
2023-03-03T00:41:24.418Z,83.69
2023-03-03T00:46:33.960Z,84.15
2023-03-03T00:51:45.502Z,84.30
2023-03-03T00:56:52.894Z,84.73
2023-03-03T01:02:01.008Z,85.17
2023-03-03T01:07:08.727Z,86.33
2023-03-03T01:12:17.268Z,85.70
2023-03-03T01:17:25.285Z,85.28
2023-03-03T01:22:32.941Z,86.32
2023-03-03T01:27:40.632Z,86.77
2023-03-03T01:32:48.202Z,86.01
2023-03-03T01:37:55.751Z,86.54
2023-03-03T01:43:04.553Z,86.09
2023-03-03T01:48:16.051Z,86.10
2023-03-03T01:53:30.209Z,85.68
2023-03-03T01:58:41.706Z,85.55
2023-03-03T02:03:50.042Z,85.20
2023-03-03T02:09:05.377Z,85.23
2023-03-03T02:14:14.493Z,85.28
2023-03-03T02:19:29.248Z,85.80
2023-03-03T02:24:40.958Z,86.27
2023-03-03T02:29:48.394Z,86.91
2023-03-03T02:34:55.932Z,86.79
2023-03-03T02:40:04.335Z,86.14
2023-03-03T02:45:13.057Z,86.04
2023-03-03T02:50:20.600Z,86.15
2023-03-03T02:55:28.714Z,86.09
2023-03-03T03:00:36.134Z,85.05
2023-03-03T03:05:44.072Z,84.47
2023-03-03T03:10:51.885Z,84.51
2023-03-03T03:15:59.725Z,85.41
2023-03-03T03:21:15.083Z,85.57
2023-03-03T03:29:01.491Z,85.42
2023-03-03T03:34:05.655Z,85.54
2023-03-03T03:42:35.418Z,86.29
2023-03-03T03:47:42.804Z,86.38
2023-03-03T03:52:50.731Z,85.66
2023-03-03T03:57:59.320Z,86.00
2023-03-03T04:03:07.000Z,85.92
2023-03-03T04:08:15.099Z,85.99
2023-03-03T04:13:23.577Z,86.32
2023-03-03T04:18:31.053Z,86.73
2023-03-03T04:23:38.513Z,86.17
2023-03-03T04:28:46.140Z,85.49
2023-03-03T04:33:53.936Z,86.10
2023-03-03T04:39:01.574Z,87.07
2023-03-03T04:44:09.700Z,86.20
2023-03-03T04:49:17.462Z,86.13
2023-03-03T04:54:25.684Z,86.33
2023-03-03T04:59:36.028Z,86.38
2023-03-03T05:04:43.870Z,86.68
2023-03-03T05:09:51.680Z,86.92
2023-03-03T05:14:59.539Z,87.42
2023-03-03T05:20:10.510Z,87.06
2023-03-03T05:25:18.492Z,87.38
2023-03-03T05:30:25.851Z,86.82
2023-03-03T05:35:34.601Z,86.41
2023-03-03T05:40:44.218Z,86.21
2023-03-03T05:45:58.058Z,86.76
2023-03-03T05:51:05.810Z,87.47
2023-03-03T05:56:13.307Z,87.74
2023-03-03T06:01:21.241Z,88.13
2023-03-03T06:06:29.461Z,88.56
2023-03-03T06:11:37.891Z,88.60
2023-03-03T06:19:30.357Z,88.96
2023-03-03T06:24:37.955Z,89.36
2023-03-03T06:29:45.055Z,89.74
2023-03-03T06:34:52.334Z,89.97
2023-03-03T06:39:59.876Z,89.86
2023-03-03T06:45:08.738Z,90.21
2023-03-03T06:50:20.012Z,90.35
2023-03-03T06:55:27.934Z,90.29
2023-03-03T07:00:36.258Z,90.55
2023-03-03T07:05:44.221Z,90.44
2023-03-03T07:10:53.784Z,90.50
2023-03-03T07:16:11.317Z,90.32
2023-03-03T07:21:24.017Z,89.72
2023-03-03T07:26:34.384Z,89.10
2023-03-03T07:31:45.652Z,88.62
2023-03-03T07:36:55.662Z,88.35
2023-03-03T07:42:16.176Z,87.71
2023-03-03T07:47:27.836Z,87.45
2023-03-03T07:52:43.573Z,87.07
2023-03-03T07:57:56.239Z,86.79
2023-03-03T08:03:07.318Z,86.59
2023-03-03T08:08:32.112Z,86.44
2023-03-03T08:13:43.605Z,86.53
2023-03-03T08:18:53.815Z,86.80
2023-03-03T08:24:01.818Z,86.18
2023-03-03T08:29:09.217Z,85.86
2023-03-03T08:34:16.558Z,85.68
2023-03-03T08:39:24.458Z,85.57
2023-03-03T08:44:32.286Z,85.51
2023-03-03T08:49:40.408Z,85.26
2023-03-03T08:54:47.850Z,84.82
2023-03-03T09:08:16.508Z,84.18
2023-03-03T09:13:24.736Z,83.96
2023-03-03T09:18:38.115Z,84.05
2023-03-03T09:23:50.210Z,83.73
2023-03-03T09:29:00.538Z,83.54
2023-03-03T09:34:21.086Z,83.18
2023-03-03T09:39:31.942Z,82.85
2023-03-03T09:45:04.663Z,82.23
2023-03-03T09:50:21.467Z,82.51
2023-03-03T09:55:42.470Z,82.17
2023-03-03T10:00:58.953Z,81.67
2023-03-03T10:06:20.678Z,81.55
2023-03-03T10:11:37.674Z,81.35
2023-03-03T10:17:07.559Z,80.76
2023-03-03T10:22:26.161Z,80.44
2023-03-03T10:27:49.439Z,80.12
2023-03-03T10:33:03.598Z,78.70
2023-03-03T10:38:34.575Z,78.45
2023-03-03T10:44:27.443Z,78.98
2023-03-03T10:49:51.491Z,79.19
2023-03-03T10:55:19.055Z,79.46
2023-03-03T11:00:31.734Z,79.53
2023-03-03T11:05:42.484Z,79.66
2023-03-03T11:11:00.740Z,79.37
2023-03-03T11:16:23.492Z,77.14
2023-03-03T11:21:36.999Z,76.13
2023-03-03T11:27:07.806Z,75.07
2023-03-03T11:32:27.856Z,75.32
2023-03-03T11:37:43.646Z,76.01
2023-03-03T11:43:02.431Z,76.00
2023-03-03T11:48:18.414Z,76.19
2023-03-03T11:53:42.038Z,76.10
2023-03-03T11:58:57.124Z,76.61
2023-03-03T12:04:09.239Z,76.97
2023-03-03T12:09:40.569Z,76.91
2023-03-03T12:15:06.164Z,77.09
2023-03-03T12:20:19.959Z,77.59
2023-03-03T12:25:36.093Z,77.63
2023-03-03T12:31:02.329Z,77.89
2023-03-03T12:36:23.715Z,78.24
2023-03-03T12:41:38.456Z,77.71
2023-03-03T12:46:55.173Z,77.85
2023-03-03T12:52:17.337Z,77.98
2023-03-03T12:57:32.645Z,78.19
2023-03-03T13:02:48.870Z,78.75
2023-03-03T13:08:06.646Z,78.32
2023-03-03T13:13:18.332Z,78.65
2023-03-03T13:18:40.078Z,78.71
2023-03-03T13:23:56.638Z,78.21
2023-03-03T13:29:15.778Z,78.36
2023-03-03T13:34:35.832Z,78.73
2023-03-03T13:39:53.888Z,78.41
2023-03-03T13:45:03.305Z,78.50
2023-03-03T13:50:26.017Z,78.81
2023-03-03T13:55:41.083Z,78.92
2023-03-03T14:01:03.755Z,78.45
2023-03-03T14:06:18.723Z,76.82
2023-03-03T14:11:35.927Z,77.12
2023-03-03T14:16:53.997Z,76.90
2023-03-03T14:22:12.868Z,77.21
2023-03-03T14:27:27.937Z,77.09
2023-03-03T14:32:45.444Z,76.96
2023-03-03T14:37:53.837Z,76.55
2023-03-03T14:43:03.958Z,76.45
2023-03-03T14:48:19.688Z,76.75
2023-03-03T14:53:38.552Z,77.46
2023-03-03T14:58:46.749Z,77.37
2023-03-03T15:04:02.677Z,77.19
2023-03-03T15:09:37.104Z,76.98
2023-03-03T15:14:48.916Z,77.14
2023-03-03T15:20:18.076Z,77.16
2023-03-03T15:25:43.504Z,77.00
2023-03-03T15:30:57.870Z,77.40
2023-03-03T15:36:16.794Z,77.49
2023-03-03T15:41:45.213Z,77.26
2023-03-03T15:47:16.338Z,77.33
2023-03-03T15:52:36.441Z,76.97
2023-03-03T15:57:56.470Z,77.30
2023-03-03T16:03:10.276Z,77.37
2023-03-03T16:08:23.668Z,77.61
2023-03-03T16:13:50.553Z,77.39
2023-03-03T16:19:13.102Z,77.60
2023-03-03T16:24:33.792Z,77.58
2023-03-03T16:29:53.110Z,77.14
2023-03-03T16:35:13.509Z,76.67
2023-03-03T16:40:26.224Z,76.61
2023-03-03T16:45:38.614Z,76.43
2023-03-03T16:51:01.848Z,76.79
2023-03-03T16:56:16.083Z,77.10
2023-03-03T17:01:37.319Z,77.38
2023-03-03T17:06:51.874Z,77.66
2023-03-03T17:12:10.648Z,77.15
2023-03-03T17:17:31.819Z,76.26
2023-03-03T17:22:52.500Z,76.04
2023-03-03T17:28:13.743Z,76.14
2023-03-03T17:33:38.253Z,76.68
2023-03-03T17:39:00.278Z,76.92
2023-03-03T17:44:15.508Z,77.15
2023-03-03T17:50:10.069Z,77.58
2023-03-03T17:55:31.467Z,77.62
2023-03-03T18:00:51.296Z,77.88
2023-03-03T18:06:16.678Z,78.11
2023-03-03T18:11:35.656Z,78.27
2023-03-03T18:17:04.130Z,78.46
2023-03-03T18:28:24.552Z,78.45
2023-03-03T18:33:59.701Z,78.55
2023-03-03T18:39:15.229Z,78.68
2023-03-03T18:44:32.538Z,78.76
2023-03-03T18:49:56.541Z,78.79
2023-03-03T18:55:28.386Z,79.01
2023-03-03T19:00:46.817Z,79.10
2023-03-03T19:05:58.304Z,79.16
2023-03-03T19:11:06.889Z,78.97
2023-03-03T19:16:30.785Z,79.19
2023-03-03T19:21:39.998Z,79.01
2023-03-03T19:27:03.796Z,79.35
2023-03-03T19:32:32.168Z,79.30
2023-03-03T19:37:50.413Z,79.47
2023-03-03T19:43:11.459Z,79.55
2023-03-03T19:48:29.445Z,79.74
2023-03-03T19:53:46.813Z,79.87
2023-03-03T19:59:08.421Z,79.93
2023-03-03T20:04:43.590Z,80.28
2023-03-03T20:14:01.865Z,80.40
2023-03-03T20:19:26.687Z,80.54
2023-03-03T20:24:59.137Z,80.76
2023-03-03T20:30:25.502Z,80.92
2023-03-03T20:35:44.729Z,81.17
2023-03-03T20:40:59.174Z,81.39
2023-03-03T20:46:14.959Z,81.40
2023-03-03T20:51:31.438Z,81.74
2023-03-03T20:56:45.166Z,82.12
2023-03-03T21:01:59.400Z,82.62
2023-03-03T21:07:08.116Z,82.88
2023-03-03T21:12:32.441Z,83.06
2023-03-03T21:17:40.190Z,83.04
2023-03-03T21:22:47.846Z,83.47
2023-03-03T21:28:13.961Z,83.32
2023-03-03T21:33:55.005Z,83.54
2023-03-03T21:39:03.118Z,83.89
2023-03-03T21:44:37.351Z,83.93
2023-03-03T21:49:46.546Z,84.01
2023-03-03T21:54:54.806Z,84.14
2023-03-03T22:00:02.418Z,84.13
2023-03-03T22:05:11.016Z,84.32
2023-03-03T22:10:18.939Z,84.61
2023-03-03T22:15:28.938Z,84.71
2023-03-03T22:20:37.257Z,84.59
2023-03-03T22:25:45.202Z,84.52
2023-03-03T22:30:53.430Z,85.03
2023-03-03T22:36:01.281Z,84.75
2023-03-03T22:41:09.723Z,84.96
2023-03-03T22:46:17.240Z,85.09
2023-03-03T22:51:26.381Z,85.37
2023-03-03T22:56:34.084Z,85.34
2023-03-03T23:01:42.350Z,85.61
2023-03-03T23:06:50.521Z,85.81
2023-03-03T23:11:58.066Z,85.75
2023-03-03T23:17:05.500Z,85.69
2023-03-03T23:22:12.775Z,85.82
2023-03-03T23:27:18.818Z,85.94
2023-03-03T23:32:27.015Z,86.18
2023-03-03T23:37:34.678Z,86.84
2023-03-03T23:42:40.564Z,87.03
2023-03-03T23:47:47.866Z,87.15
2023-03-03T23:52:53.465Z,87.11
2023-03-03T23:58:01.120Z,87.30
